createdAt,value
2023-05-23T05:20:14.270Z,100092.75
2023-05-23T05:23:18.985Z,100097.38
2023-05-23T05:26:24.530Z,100090.19
2023-05-23T05:29:27.876Z,100097.47
2023-05-23T05:32:34.749Z,100105.59
2023-05-23T06:00:43.478Z,100105.22
2023-05-23T06:03:46.135Z,100096.91
2023-05-23T06:06:48.796Z,100098.13
2023-05-23T06:09:51.312Z,100095.09
2023-05-23T06:12:53.852Z,100096.66
2023-05-23T06:15:58.420Z,100091.69
2023-05-23T06:19:01.053Z,100096.16
2023-05-23T06:22:03.604Z,100108.13
2023-05-23T06:25:07.692Z,100121.31
2023-05-23T06:28:10.284Z,100113.38
2023-05-23T06:31:14.232Z,100112.69
2023-05-23T06:34:17.674Z,100120.03
2023-05-23T06:37:20.241Z,100118.41
2023-05-23T06:40:23.057Z,100113.38
2023-05-23T06:43:25.646Z,100111.94
2023-05-23T06:46:29.548Z,100116.53
2023-05-23T06:49:32.190Z,100108.19
2023-05-23T06:52:34.685Z,100107.34
2023-05-23T06:55:37.374Z,100107.94
2023-05-23T06:58:39.889Z,100102.81
2023-05-23T07:01:43.826Z,100098.53
2023-05-23T07:04:46.562Z,100092.16
2023-05-23T07:07:49.117Z,100098.75
2023-05-23T07:10:51.627Z,100097.56
2023-05-23T07:13:54.208Z,100096.72
2023-05-23T07:16:58.091Z,100104.25
2023-05-23T07:20:00.726Z,100107.25
2023-05-23T07:23:03.298Z,100102.25
2023-05-23T07:26:05.894Z,100108.94
2023-05-23T07:29:08.428Z,100105.63
2023-05-23T07:32:12.268Z,100109.19
2023-05-23T07:35:14.981Z,100111.72
2023-05-23T07:38:17.634Z,100093.44
2023-05-23T07:41:20.163Z,100100.47
2023-05-23T07:44:25.227Z,100096.09
2023-05-23T07:47:29.314Z,100092.28
2023-05-23T07:50:31.980Z,100092.13
2023-05-23T07:53:34.991Z,100092.28
2023-05-23T07:56:38.737Z,100092.13
2023-05-23T07:59:41.315Z,100090.38
2023-05-23T08:02:45.261Z,100094.16
2023-05-23T08:05:48.318Z,100104.81
2023-05-23T08:08:51.735Z,100104.81
2023-05-23T08:11:54.516Z,100106.28
2023-05-23T08:14:57.063Z,100118.13
2023-05-23T08:18:01.239Z,100120.66
2023-05-23T08:21:04.763Z,100114.53
2023-05-23T08:24:07.374Z,100128.13
2023-05-23T08:27:09.887Z,100122.13
2023-05-23T08:30:13.638Z,100124.06
2023-05-23T08:33:17.499Z,100122.47
2023-05-23T08:36:20.046Z,100124.41
2023-05-23T08:39:22.579Z,100126.50
2023-05-23T08:42:25.860Z,100136.66
2023-05-23T08:45:30.388Z,100128.09
2023-05-23T08:48:37.379Z,100134.00
2023-05-23T08:51:43.996Z,100137.56
2023-05-23T08:54:47.821Z,100131.25
2023-05-23T08:57:50.468Z,100139.53
2023-05-23T09:00:53.758Z,100152.22
2023-05-23T09:04:00.429Z,100151.94
2023-05-23T09:07:03.975Z,100142.50
2023-05-23T09:10:08.174Z,100147.56
2023-05-23T09:13:10.801Z,100149.97
2023-05-23T09:16:13.663Z,100150.16
2023-05-23T09:19:19.445Z,100160.16
2023-05-23T09:22:25.822Z,100142.47
2023-05-23T09:25:28.357Z,100144.81
2023-05-23T09:28:31.245Z,100146.56
2023-05-23T09:31:34.577Z,100142.97
2023-05-23T09:34:41.756Z,100141.94
2023-05-23T09:37:47.014Z,100151.38
2023-05-23T09:40:49.626Z,100149.34
2023-05-23T09:43:52.997Z,100146.00
2023-05-23T09:46:55.748Z,100142.84
2023-05-23T09:49:59.899Z,100139.38
2023-05-23T09:53:02.607Z,100132.63
2023-05-23T09:56:05.711Z,100135.47
2023-05-23T09:59:12.104Z,100134.81
2023-05-23T10:02:19.600Z,100130.31
2023-05-23T10:05:34.861Z,100133.13
2023-05-23T10:08:40.179Z,100136.66
2023-05-23T10:12:21.993Z,100147.66
2023-05-23T10:15:31.906Z,100150.16
2023-05-23T10:18:40.816Z,100156.91
2023-05-23T10:21:51.515Z,100157.84
2023-05-23T10:24:54.623Z,100165.34
2023-05-23T10:28:02.407Z,100165.22
2023-05-23T10:31:07.085Z,100161.41
2023-05-23T10:34:18.095Z,100174.75
2023-05-23T10:37:28.623Z,100162.00
2023-05-23T10:40:40.863Z,100162.13
2023-05-23T10:43:48.469Z,100151.47
2023-05-23T10:46:54.004Z,100146.25
2023-05-23T10:49:56.969Z,100148.22
2023-05-23T10:53:01.963Z,100147.28
2023-05-23T10:56:07.005Z,100149.59
2023-05-23T10:59:10.709Z,100157.28
2023-05-23T11:02:15.813Z,100156.25
2023-05-23T11:05:23.794Z,100156.06
2023-05-23T11:08:43.208Z,100158.28
2023-05-23T11:11:54.296Z,100146.72
2023-05-23T11:14:56.816Z,100155.56
2023-05-23T11:17:59.490Z,100156.25
2023-05-23T11:21:02.678Z,100145.66
2023-05-23T11:24:06.813Z,100144.16
2023-05-23T11:27:13.490Z,100145.19
2023-05-23T11:30:17.972Z,100144.44
2023-05-23T11:33:21.171Z,100147.97
2023-05-23T11:36:24.112Z,100140.28
2023-05-23T11:39:28.094Z,100147.16
2023-05-23T11:42:30.986Z,100148.53
2023-05-23T11:45:35.151Z,100145.94
2023-05-23T11:48:38.001Z,100139.56
2023-05-23T11:51:40.625Z,100142.75
2023-05-23T11:54:44.632Z,100139.56
2023-05-23T11:57:47.281Z,100141.59
2023-05-23T12:00:49.900Z,100138.06
2023-05-23T12:03:52.966Z,100142.66
2023-05-23T12:06:56.228Z,100143.44
2023-05-23T12:10:00.310Z,100156.91
2023-05-23T12:16:05.939Z,100146.53
2023-05-23T12:19:08.752Z,100148.69
2023-05-23T12:22:11.309Z,100154.84
2023-05-23T12:28:17.570Z,100150.22
2023-05-23T12:31:22.410Z,100152.34
2023-05-23T12:34:25.236Z,100150.88
2023-05-23T12:37:28.010Z,100156.16
2023-05-23T12:40:31.994Z,100164.34
2023-05-23T12:43:38.429Z,100163.81
2023-05-23T12:46:41.246Z,100162.75
2023-05-23T12:49:44.919Z,100162.34
2023-05-23T12:52:47.545Z,100161.97
2023-05-23T12:55:51.440Z,100167.53
2023-05-23T12:58:54.595Z,100162.31
2023-05-23T13:01:57.138Z,100167.81
2023-05-23T13:04:59.637Z,100163.81
2023-05-23T13:08:02.171Z,100160.81
2023-05-23T13:11:06.534Z,100167.53
2023-05-23T13:14:09.137Z,100169.53
2023-05-23T13:17:12.516Z,100160.44
2023-05-23T13:20:15.291Z,100162.84
2023-05-23T13:23:17.792Z,100170.22
2023-05-23T13:26:21.818Z,100165.13
2023-05-23T13:29:24.368Z,100170.72
2023-05-23T13:32:26.924Z,100159.06
2023-05-23T13:35:29.816Z,100163.47
2023-05-23T13:38:32.375Z,100171.34
2023-05-23T13:41:36.295Z,100169.72
2023-05-23T13:44:38.977Z,100178.88
2023-05-23T13:47:41.589Z,100180.56
2023-05-23T13:50:44.596Z,100171.47
2023-05-23T13:53:47.942Z,100173.66
2023-05-23T13:56:51.802Z,100173.06
2023-05-23T13:59:54.441Z,100177.97
2023-05-23T14:02:57.054Z,100177.63
2023-05-23T14:05:59.780Z,100170.50
2023-05-23T14:09:02.426Z,100168.16
2023-05-23T14:12:06.733Z,100179.44
2023-05-23T14:15:10.800Z,100179.91
2023-05-23T14:18:13.500Z,100179.31
2023-05-23T14:21:16.257Z,100185.22
2023-05-23T14:24:18.815Z,100190.03
2023-05-23T14:27:22.826Z,100191.28
2023-05-23T14:30:25.415Z,100190.13
2023-05-23T14:33:27.983Z,100194.41
2023-05-23T14:36:30.509Z,100178.75
2023-05-23T14:39:33.027Z,100188.69
2023-05-23T14:42:37.006Z,100188.50
2023-05-23T14:45:39.855Z,100190.00
2023-05-23T14:48:42.878Z,100198.38
2023-05-23T14:51:50.896Z,100194.09
2023-05-23T14:54:54.269Z,100208.28
2023-05-23T14:57:58.175Z,100207.81
2023-05-23T15:01:00.863Z,100204.56
2023-05-23T15:04:05.747Z,100211.56
2023-05-23T15:07:08.856Z,100217.34
2023-05-23T15:10:11.620Z,100226.31
2023-05-23T15:13:15.766Z,100227.25
2023-05-23T15:16:18.376Z,100233.13
2023-05-23T15:19:21.054Z,100235.72
2023-05-23T15:25:48.120Z,100254.81
2023-05-23T15:28:53.632Z,100248.59
2023-05-23T15:31:56.553Z,100267.81
2023-05-23T15:34:59.220Z,100268.03
2023-05-23T15:38:01.747Z,100272.63
2023-05-23T15:41:04.979Z,100278.09
2023-05-23T15:44:08.984Z,100276.81
2023-05-23T15:47:11.741Z,100285.34
2023-05-23T15:50:14.525Z,100277.09
2023-05-23T15:53:17.152Z,100283.50
2023-05-23T15:56:19.678Z,100287.84
2023-05-23T15:59:23.535Z,100293.59
2023-05-23T16:02:26.179Z,100286.84
2023-05-23T16:05:28.776Z,100286.09
2023-05-23T16:08:31.353Z,100291.75
2023-05-23T16:11:33.855Z,100300.47
2023-05-23T16:14:37.788Z,100306.84
2023-05-23T16:17:40.552Z,100295.91
2023-05-23T16:20:43.081Z,100306.34
2023-05-23T16:23:45.635Z,100308.59
2023-05-23T16:26:48.176Z,100313.81
2023-05-23T16:29:52.040Z,100312.41
2023-05-23T16:32:54.744Z,100307.16
2023-05-23T16:35:57.299Z,100320.59
2023-05-23T16:38:59.869Z,100324.78
2023-05-23T16:42:02.451Z,100334.22
2023-05-23T16:45:07.821Z,100335.09
2023-05-23T16:48:10.392Z,100351.38
2023-05-23T16:51:13.128Z,100343.41
2023-05-23T16:54:15.778Z,100343.63
2023-05-23T16:57:18.329Z,100343.41
2023-05-23T17:00:22.537Z,100347.66
2023-05-23T17:03:25.236Z,100342.72
2023-05-23T17:06:27.925Z,100355.34
2023-05-23T17:09:30.814Z,100352.78
2023-05-23T17:12:33.306Z,100352.22
2023-05-23T17:15:37.641Z,100361.41
2023-05-23T17:18:40.209Z,100364.69
2023-05-23T17:21:42.749Z,100363.84
2023-05-23T17:24:45.285Z,100361.25
2023-05-23T17:27:47.840Z,100366.00
2023-05-23T17:30:53.191Z,100376.31
2023-05-23T17:33:56.045Z,100375.13
2023-05-23T17:36:58.611Z,100382.09
2023-05-23T17:40:01.871Z,100397.28
2023-05-23T17:43:04.598Z,100394.44
2023-05-23T17:46:08.501Z,100404.75
2023-05-23T17:49:11.042Z,100408.13
2023-05-23T17:52:15.017Z,100407.41
2023-05-23T17:55:17.680Z,100421.56
2023-05-23T17:58:20.239Z,100421.28
2023-05-23T18:01:24.924Z,100428.06
2023-05-23T18:04:27.795Z,100435.31
2023-05-23T18:07:30.342Z,100446.25
2023-05-23T18:10:32.914Z,100449.09
2023-05-23T18:13:35.536Z,100465.81
2023-05-23T18:16:39.427Z,100471.97
2023-05-23T18:19:42.206Z,100476.41
2023-05-23T18:22:44.908Z,100486.06
2023-05-23T18:25:48.241Z,100489.38
2023-05-23T18:28:50.924Z,100495.53
2023-05-23T18:31:54.793Z,100499.03
2023-05-23T18:34:57.315Z,100495.53
